sensor_id;sensor_type;location;lat;lon;timestamp;temperature;humidity
50548;DHT22;38013;48.810;8.818;2022-09-21T00:03:37;8.50;70.80
50548;DHT22;38013;48.810;8.818;2022-09-21T00:06:15;8.40;70.10
50548;DHT22;38013;48.810;8.818;2022-09-21T00:08:44;8.40;70.70
50548;DHT22;38013;48.810;8.818;2022-09-21T00:11:12;8.40;70.20
50548;DHT22;38013;48.810;8.818;2022-09-21T00:13:39;8.40;70.30
50548;DHT22;38013;48.810;8.818;2022-09-21T00:16:07;8.40;70.20
50548;DHT22;38013;48.810;8.818;2022-09-21T00:18:34;8.40;70.10
50548;DHT22;38013;48.810;8.818;2022-09-21T00:21:01;8.30;70.10
50548;DHT22;38013;48.810;8.818;2022-09-21T00:23:32;8.30;70.10
50548;DHT22;38013;48.810;8.818;2022-09-21T00:26:05;8.30;70.20
50548;DHT22;38013;48.810;8.818;2022-09-21T00:28:32;8.30;70.60
50548;DHT22;38013;48.810;8.818;2022-09-21T00:31:06;8.30;70.10
50548;DHT22;38013;48.810;8.818;2022-09-21T00:33:34;8.20;70.50
50548;DHT22;38013;48.810;8.818;2022-09-21T00:36:04;8.20;70.20
50548;DHT22;38013;48.810;8.818;2022-09-21T00:38:33;8.20;70.40
50548;DHT22;38013;48.810;8.818;2022-09-21T00:40:59;8.20;70.10
50548;DHT22;38013;48.810;8.818;2022-09-21T00:43:25;8.20;70.10
50548;DHT22;38013;48.810;8.818;2022-09-21T00:45:56;8.20;70.10
50548;DHT22;38013;48.810;8.818;2022-09-21T00:48:26;8.10;70.30
50548;DHT22;38013;48.810;8.818;2022-09-21T00:50:54;8.10;70.20
50548;DHT22;38013;48.810;8.818;2022-09-21T00:53:21;8.10;70.30
50548;DHT22;38013;48.810;8.818;2022-09-21T00:55:51;8.10;70.20
50548;DHT22;38013;48.810;8.818;2022-09-21T00:58:25;8.00;70.20
50548;DHT22;38013;48.810;8.818;2022-09-21T01:00:55;8.00;70.40
50548;DHT22;38013;48.810;8.818;2022-09-21T01:03:21;8.00;70.30
50548;DHT22;38013;48.810;8.818;2022-09-21T01:05:47;8.00;70.20
50548;DHT22;38013;48.810;8.818;2022-09-21T01:08:14;7.90;70.20
50548;DHT22;38013;48.810;8.818;2022-09-21T01:14:10;7.90;71.10
50548;DHT22;38013;48.810;8.818;2022-09-21T01:29:36;7.80;70.30
50548;DHT22;38013;48.810;8.818;2022-09-21T01:32:12;7.70;69.80
50548;DHT22;38013;48.810;8.818;2022-09-21T01:34:52;7.70;70.20
50548;DHT22;38013;48.810;8.818;2022-09-21T01:37:37;7.60;70.40
50548;DHT22;38013;48.810;8.818;2022-09-21T01:40:13;7.60;70.10
50548;DHT22;38013;48.810;8.818;2022-09-21T01:42:44;7.60;70.10
50548;DHT22;38013;48.810;8.818;2022-09-21T01:45:15;7.60;70.10
50548;DHT22;38013;48.810;8.818;2022-09-21T01:47:45;7.50;70.20
50548;DHT22;38013;48.810;8.818;2022-09-21T01:50:13;7.50;70.30
50548;DHT22;38013;48.810;8.818;2022-09-21T01:53:10;7.50;70.30
50548;DHT22;38013;48.810;8.818;2022-09-21T01:56:00;7.50;71.10
50548;DHT22;38013;48.810;8.818;2022-09-21T01:58:48;7.40;70.80
50548;DHT22;38013;48.810;8.818;2022-09-21T02:01:19;7.40;70.80
50548;DHT22;38013;48.810;8.818;2022-09-21T02:03:56;7.40;70.30
50548;DHT22;38013;48.810;8.818;2022-09-21T02:06:25;7.40;70.70
50548;DHT22;38013;48.810;8.818;2022-09-21T02:08:52;7.30;70.30
50548;DHT22;38013;48.810;8.818;2022-09-21T02:11:18;7.30;70.30
50548;DHT22;38013;48.810;8.818;2022-09-21T02:13:45;7.30;70.30
50548;DHT22;38013;48.810;8.818;2022-09-21T02:16:36;7.20;70.50
50548;DHT22;38013;48.810;8.818;2022-09-21T02:19:40;7.20;70.70
50548;DHT22;38013;48.810;8.818;2022-09-21T02:22:38;7.20;70.90
50548;DHT22;38013;48.810;8.818;2022-09-21T02:25:20;7.20;70.90
50548;DHT22;38013;48.810;8.818;2022-09-21T02:27:56;7.10;70.80
50548;DHT22;38013;48.810;8.818;2022-09-21T02:30:27;7.10;70.60
50548;DHT22;38013;48.810;8.818;2022-09-21T02:33:09;7.10;70.60
50548;DHT22;38013;48.810;8.818;2022-09-21T02:35:39;7.10;71.20
50548;DHT22;38013;48.810;8.818;2022-09-21T02:38:11;7.00;70.70
50548;DHT22;38013;48.810;8.818;2022-09-21T02:46:12;7.00;70.80
50548;DHT22;38013;48.810;8.818;2022-09-21T02:48:48;7.00;71.00
50548;DHT22;38013;48.810;8.818;2022-09-21T02:51:22;7.00;71.00
50548;DHT22;38013;48.810;8.818;2022-09-21T02:53:52;7.00;70.90
50548;DHT22;38013;48.810;8.818;2022-09-21T02:56:20;7.00;70.70
50548;DHT22;38013;48.810;8.818;2022-09-21T02:58:49;6.90;70.70
50548;DHT22;38013;48.810;8.818;2022-09-21T03:01:19;6.90;70.80
50548;DHT22;38013;48.810;8.818;2022-09-21T03:03:47;6.90;70.80
50548;DHT22;38013;48.810;8.818;2022-09-21T03:06:13;6.90;70.70
50548;DHT22;38013;48.810;8.818;2022-09-21T03:08:39;6.80;70.60
50548;DHT22;38013;48.810;8.818;2022-09-21T03:11:05;6.90;70.70
50548;DHT22;38013;48.810;8.818;2022-09-21T03:13:31;6.80;70.70
50548;DHT22;38013;48.810;8.818;2022-09-21T03:16:00;6.80;70.70
50548;DHT22;38013;48.810;8.818;2022-09-21T03:18:27;6.80;70.80
50548;DHT22;38013;48.810;8.818;2022-09-21T03:20:53;6.80;70.80
50548;DHT22;38013;48.810;8.818;2022-09-21T03:23:19;6.70;70.70
50548;DHT22;38013;48.810;8.818;2022-09-21T03:25:45;6.70;70.60
50548;DHT22;38013;48.810;8.818;2022-09-21T03:28:13;6.70;70.70
50548;DHT22;38013;48.810;8.818;2022-09-21T03:30:40;6.70;70.80
50548;DHT22;38013;48.810;8.818;2022-09-21T03:33:06;6.70;70.80
50548;DHT22;38013;48.810;8.818;2022-09-21T03:35:32;6.70;70.70
50548;DHT22;38013;48.810;8.818;2022-09-21T03:37:59;6.60;70.70
50548;DHT22;38013;48.810;8.818;2022-09-21T03:40:25;6.60;70.70
50548;DHT22;38013;48.810;8.818;2022-09-21T03:42:52;6.60;70.60
50548;DHT22;38013;48.810;8.818;2022-09-21T03:45:18;6.60;70.60
50548;DHT22;38013;48.810;8.818;2022-09-21T03:47:46;6.50;70.50
50548;DHT22;38013;48.810;8.818;2022-09-21T03:50:13;6.60;70.60
50548;DHT22;38013;48.810;8.818;2022-09-21T03:52:39;6.60;71.30
50548;DHT22;38013;48.810;8.818;2022-09-21T03:55:06;6.50;70.60
50548;DHT22;38013;48.810;8.818;2022-09-21T03:57:34;6.50;70.50
50548;DHT22;38013;48.810;8.818;2022-09-21T04:00:06;6.50;70.60
50548;DHT22;38013;48.810;8.818;2022-09-21T04:02:34;6.50;70.80
50548;DHT22;38013;48.810;8.818;2022-09-21T04:05:01;6.50;70.70
50548;DHT22;38013;48.810;8.818;2022-09-21T04:07:30;6.40;70.70
50548;DHT22;38013;48.810;8.818;2022-09-21T04:09:59;6.40;70.70
50548;DHT22;38013;48.810;8.818;2022-09-21T04:12:26;6.40;70.70
50548;DHT22;38013;48.810;8.818;2022-09-21T04:14:52;6.40;70.70
50548;DHT22;38013;48.810;8.818;2022-09-21T04:17:18;6.40;70.70
50548;DHT22;38013;48.810;8.818;2022-09-21T04:19:44;6.30;70.70
50548;DHT22;38013;48.810;8.818;2022-09-21T04:22:10;6.30;70.70
50548;DHT22;38013;48.810;8.818;2022-09-21T04:24:37;6.30;70.90
50548;DHT22;38013;48.810;8.818;2022-09-21T04:27:06;6.30;70.90
50548;DHT22;38013;48.810;8.818;2022-09-21T04:29:32;6.20;70.80
50548;DHT22;38013;48.810;8.818;2022-09-21T04:31:58;6.30;70.80
50548;DHT22;38013;48.810;8.818;2022-09-21T04:34:24;6.30;70.80
50548;DHT22;38013;48.810;8.818;2022-09-21T04:36:50;6.20;70.80
50548;DHT22;38013;48.810;8.818;2022-09-21T04:39:16;6.20;70.90
50548;DHT22;38013;48.810;8.818;2022-09-21T04:41:42;6.20;71.00
50548;DHT22;38013;48.810;8.818;2022-09-21T04:44:07;6.20;71.20
50548;DHT22;38013;48.810;8.818;2022-09-21T04:46:33;6.20;71.30
50548;DHT22;38013;48.810;8.818;2022-09-21T04:48:59;6.20;71.30
50548;DHT22;38013;48.810;8.818;2022-09-21T04:51:25;6.10;71.30
50548;DHT22;38013;48.810;8.818;2022-09-21T04:53:51;6.10;71.20
50548;DHT22;38013;48.810;8.818;2022-09-21T04:56:16;6.10;71.10
50548;DHT22;38013;48.810;8.818;2022-09-21T04:58:43;6.10;71.00
50548;DHT22;38013;48.810;8.818;2022-09-21T05:01:09;6.10;70.90
50548;DHT22;38013;48.810;8.818;2022-09-21T05:03:36;6.10;70.90
50548;DHT22;38013;48.810;8.818;2022-09-21T05:06:01;6.00;70.90
50548;DHT22;38013;48.810;8.818;2022-09-21T05:08:28;6.00;70.90
50548;DHT22;38013;48.810;8.818;2022-09-21T05:11:15;6.00;71.00
50548;DHT22;38013;48.810;8.818;2022-09-21T05:13:43;5.90;71.70
50548;DHT22;38013;48.810;8.818;2022-09-21T05:16:10;5.90;71.10
50548;DHT22;38013;48.810;8.818;2022-09-21T05:18:36;6.00;71.20
50548;DHT22;38013;48.810;8.818;2022-09-21T05:21:03;5.90;71.20
50548;DHT22;38013;48.810;8.818;2022-09-21T05:23:30;5.90;71.20
50548;DHT22;38013;48.810;8.818;2022-09-21T05:25:56;5.90;71.20
50548;DHT22;38013;48.810;8.818;2022-09-21T05:28:23;5.90;71.40
50548;DHT22;38013;48.810;8.818;2022-09-21T05:34:30;5.90;72.30
50548;DHT22;38013;48.810;8.818;2022-09-21T05:37:36;5.90;72.70
50548;DHT22;38013;48.810;8.818;2022-09-21T05:40:10;5.90;72.10
50548;DHT22;38013;48.810;8.818;2022-09-21T05:42:36;5.90;71.80
50548;DHT22;38013;48.810;8.818;2022-09-21T05:45:02;5.90;71.90
50548;DHT22;38013;48.810;8.818;2022-09-21T05:50:48;5.90;72.70
50548;DHT22;38013;48.810;8.818;2022-09-21T05:56:46;6.00;72.80
50548;DHT22;38013;48.810;8.818;2022-09-21T05:59:34;6.10;73.00
50548;DHT22;38013;48.810;8.818;2022-09-21T06:05:00;6.20;73.00
50548;DHT22;38013;48.810;8.818;2022-09-21T06:07:27;6.20;72.40
50548;DHT22;38013;48.810;8.818;2022-09-21T06:09:52;6.20;72.50
50548;DHT22;38013;48.810;8.818;2022-09-21T06:12:18;6.30;72.60
50548;DHT22;38013;48.810;8.818;2022-09-21T06:14:44;6.30;72.60
50548;DHT22;38013;48.810;8.818;2022-09-21T06:17:10;6.40;72.70
50548;DHT22;38013;48.810;8.818;2022-09-21T06:19:35;6.40;72.60
50548;DHT22;38013;48.810;8.818;2022-09-21T06:22:01;6.50;72.80
50548;DHT22;38013;48.810;8.818;2022-09-21T06:24:27;6.60;73.00
50548;DHT22;38013;48.810;8.818;2022-09-21T06:26:53;6.60;73.10
50548;DHT22;38013;48.810;8.818;2022-09-21T06:29:18;6.70;73.30
50548;DHT22;38013;48.810;8.818;2022-09-21T06:31:49;6.70;73.50
50548;DHT22;38013;48.810;8.818;2022-09-21T06:34:16;6.80;73.60
50548;DHT22;38013;48.810;8.818;2022-09-21T06:36:42;6.90;73.80
50548;DHT22;38013;48.810;8.818;2022-09-21T06:39:10;7.00;74.10
50548;DHT22;38013;48.810;8.818;2022-09-21T06:41:36;7.00;73.90
50548;DHT22;38013;48.810;8.818;2022-09-21T06:44:08;7.10;74.00
50548;DHT22;38013;48.810;8.818;2022-09-21T06:46:34;7.20;74.00
50548;DHT22;38013;48.810;8.818;2022-09-21T06:49:00;7.30;73.90
50548;DHT22;38013;48.810;8.818;2022-09-21T06:51:26;7.40;73.90
50548;DHT22;38013;48.810;8.818;2022-09-21T06:53:55;7.50;73.90
50548;DHT22;38013;48.810;8.818;2022-09-21T06:56:23;7.50;74.00
50548;DHT22;38013;48.810;8.818;2022-09-21T06:58:49;7.70;73.90
50548;DHT22;38013;48.810;8.818;2022-09-21T07:01:17;7.70;74.00
50548;DHT22;38013;48.810;8.818;2022-09-21T07:03:43;7.80;74.00
50548;DHT22;38013;48.810;8.818;2022-09-21T07:06:10;7.90;74.00
50548;DHT22;38013;48.810;8.818;2022-09-21T07:08:38;8.00;74.10
50548;DHT22;38013;48.810;8.818;2022-09-21T07:11:05;8.10;74.00
50548;DHT22;38013;48.810;8.818;2022-09-21T07:13:31;8.20;74.20
50548;DHT22;38013;48.810;8.818;2022-09-21T07:15:56;8.20;74.30
50548;DHT22;38013;48.810;8.818;2022-09-21T07:18:22;8.30;74.30
50548;DHT22;38013;48.810;8.818;2022-09-21T07:20:48;8.40;74.40
50548;DHT22;38013;48.810;8.818;2022-09-21T07:23:16;8.50;74.50
50548;DHT22;38013;48.810;8.818;2022-09-21T07:25:45;8.60;74.80
50548;DHT22;38013;48.810;8.818;2022-09-21T07:28:16;8.80;74.90
50548;DHT22;38013;48.810;8.818;2022-09-21T07:30:43;8.90;75.00
50548;DHT22;38013;48.810;8.818;2022-09-21T07:33:09;9.00;75.20
50548;DHT22;38013;48.810;8.818;2022-09-21T07:35:35;9.10;75.30
50548;DHT22;38013;48.810;8.818;2022-09-21T07:38:03;9.20;75.40
50548;DHT22;38013;48.810;8.818;2022-09-21T07:40:30;9.30;75.50
50548;DHT22;38013;48.810;8.818;2022-09-21T07:42:57;9.40;75.40
50548;DHT22;38013;48.810;8.818;2022-09-21T07:45:25;9.50;75.40
50548;DHT22;38013;48.810;8.818;2022-09-21T07:47:51;9.60;75.40
50548;DHT22;38013;48.810;8.818;2022-09-21T07:50:19;9.70;75.30
50548;DHT22;38013;48.810;8.818;2022-09-21T07:52:45;9.90;75.30
50548;DHT22;38013;48.810;8.818;2022-09-21T07:55:12;10.00;75.20
50548;DHT22;38013;48.810;8.818;2022-09-21T07:57:38;10.10;75.20
50548;DHT22;38013;48.810;8.818;2022-09-21T08:00:23;10.20;75.00
50548;DHT22;38013;48.810;8.818;2022-09-21T08:02:49;10.30;74.90
50548;DHT22;38013;48.810;8.818;2022-09-21T08:05:15;10.40;74.80
50548;DHT22;38013;48.810;8.818;2022-09-21T08:07:41;10.60;74.80
50548;DHT22;38013;48.810;8.818;2022-09-21T08:10:07;10.70;74.70
50548;DHT22;38013;48.810;8.818;2022-09-21T08:12:33;10.80;74.60
50548;DHT22;38013;48.810;8.818;2022-09-21T08:14:59;10.90;74.60
50548;DHT22;38013;48.810;8.818;2022-09-21T08:17:24;11.00;74.70
50548;DHT22;38013;48.810;8.818;2022-09-21T08:19:50;11.20;74.70
50548;DHT22;38013;48.810;8.818;2022-09-21T08:22:16;11.30;74.70
50548;DHT22;38013;48.810;8.818;2022-09-21T08:24:43;11.40;74.60
50548;DHT22;38013;48.810;8.818;2022-09-21T08:27:09;11.50;74.50
50548;DHT22;38013;48.810;8.818;2022-09-21T08:29:35;11.70;74.40
50548;DHT22;38013;48.810;8.818;2022-09-21T08:32:02;11.80;74.40
50548;DHT22;38013;48.810;8.818;2022-09-21T08:34:28;11.90;74.20
50548;DHT22;38013;48.810;8.818;2022-09-21T08:36:53;12.00;74.00
50548;DHT22;38013;48.810;8.818;2022-09-21T08:39:19;12.20;73.90
50548;DHT22;38013;48.810;8.818;2022-09-21T08:44:49;12.40;73.00
50548;DHT22;38013;48.810;8.818;2022-09-21T08:47:42;12.60;72.40
50548;DHT22;38013;48.810;8.818;2022-09-21T08:50:41;12.70;72.00
50548;DHT22;38013;48.810;8.818;2022-09-21T08:55:58;13.10;70.60
50548;DHT22;38013;48.810;8.818;2022-09-21T08:58:26;13.20;70.70
50548;DHT22;38013;48.810;8.818;2022-09-21T09:07:03;13.70;69.20
50548;DHT22;38013;48.810;8.818;2022-09-21T09:10:00;13.80;68.50
50548;DHT22;38013;48.810;8.818;2022-09-21T09:13:01;13.90;68.10
50548;DHT22;38013;48.810;8.818;2022-09-21T09:18:56;14.20;67.80
50548;DHT22;38013;48.810;8.818;2022-09-21T09:21:31;14.40;67.10
50548;DHT22;38013;48.810;8.818;2022-09-21T09:26:47;14.70;66.50
50548;DHT22;38013;48.810;8.818;2022-09-21T09:29:25;14.80;65.90
50548;DHT22;38013;48.810;8.818;2022-09-21T09:31:57;15.00;65.00
50548;DHT22;38013;48.810;8.818;2022-09-21T09:34:32;15.10;65.40
50548;DHT22;38013;48.810;8.818;2022-09-21T09:37:18;15.20;65.00
50548;DHT22;38013;48.810;8.818;2022-09-21T09:39:55;15.30;64.80
50548;DHT22;38013;48.810;8.818;2022-09-21T09:51:12;16.00;63.70
50548;DHT22;38013;48.810;8.818;2022-09-21T09:53:38;16.20;63.40
50548;DHT22;38013;48.810;8.818;2022-09-21T09:56:04;16.40;63.20
50548;DHT22;38013;48.810;8.818;2022-09-21T10:01:07;16.60;61.90
50548;DHT22;38013;48.810;8.818;2022-09-21T10:03:33;16.70;62.10
50548;DHT22;38013;48.810;8.818;2022-09-21T10:06:00;16.90;62.10
50548;DHT22;38013;48.810;8.818;2022-09-21T10:11:04;17.20;60.90
50548;DHT22;38013;48.810;8.818;2022-09-21T10:13:45;17.30;60.50
50548;DHT22;38013;48.810;8.818;2022-09-21T10:16:19;17.50;59.30
50548;DHT22;38013;48.810;8.818;2022-09-21T10:18:49;17.70;59.50
50548;DHT22;38013;48.810;8.818;2022-09-21T10:21:18;17.80;59.40
50548;DHT22;38013;48.810;8.818;2022-09-21T10:23:52;18.00;59.90
50548;DHT22;38013;48.810;8.818;2022-09-21T10:26:21;18.20;59.00
50548;DHT22;38013;48.810;8.818;2022-09-21T10:28:59;18.30;58.50
50548;DHT22;38013;48.810;8.818;2022-09-21T10:31:30;18.50;56.20
50548;DHT22;38013;48.810;8.818;2022-09-21T10:36:33;18.70;56.40
50548;DHT22;38013;48.810;8.818;2022-09-21T10:39:30;18.80;56.30
50548;DHT22;38013;48.810;8.818;2022-09-21T10:42:14;18.90;55.40
50548;DHT22;38013;48.810;8.818;2022-09-21T10:44:45;19.10;54.90
50548;DHT22;38013;48.810;8.818;2022-09-21T10:47:14;19.20;55.90
50548;DHT22;38013;48.810;8.818;2022-09-21T10:49:50;19.30;56.40
50548;DHT22;38013;48.810;8.818;2022-09-21T10:52:31;19.50;55.30
50548;DHT22;38013;48.810;8.818;2022-09-21T10:54:58;19.60;56.10
50548;DHT22;38013;48.810;8.818;2022-09-21T10:57:25;19.80;55.30
50548;DHT22;38013;48.810;8.818;2022-09-21T10:59:52;20.00;54.60
50548;DHT22;38013;48.810;8.818;2022-09-21T11:02:34;20.10;53.90
50548;DHT22;38013;48.810;8.818;2022-09-21T11:05:13;20.20;52.80
50548;DHT22;38013;48.810;8.818;2022-09-21T11:07:51;20.40;51.60
50548;DHT22;38013;48.810;8.818;2022-09-21T11:10:48;20.50;51.60
50548;DHT22;38013;48.810;8.818;2022-09-21T11:13:33;20.50;50.80
50548;DHT22;38013;48.810;8.818;2022-09-21T11:22:05;20.80;50.10
50548;DHT22;38013;48.810;8.818;2022-09-21T11:25:00;20.80;50.00
50548;DHT22;38013;48.810;8.818;2022-09-21T11:27:39;20.80;49.10
50548;DHT22;38013;48.810;8.818;2022-09-21T11:30:17;20.70;49.40
50548;DHT22;38013;48.810;8.818;2022-09-21T11:35:58;20.80;48.80
50548;DHT22;38013;48.810;8.818;2022-09-21T11:38:57;20.80;50.20
50548;DHT22;38013;48.810;8.818;2022-09-21T11:41:56;20.90;49.20
50548;DHT22;38013;48.810;8.818;2022-09-21T11:44:59;21.00;47.90
50548;DHT22;38013;48.810;8.818;2022-09-21T11:55:48;21.30;49.00
50548;DHT22;38013;48.810;8.818;2022-09-21T12:07:06;21.70;48.00
50548;DHT22;38013;48.810;8.818;2022-09-21T12:13:07;22.00;47.60
50548;DHT22;38013;48.810;8.818;2022-09-21T12:21:21;22.50;47.40
50548;DHT22;38013;48.810;8.818;2022-09-21T12:24:35;22.60;47.10
50548;DHT22;38013;48.810;8.818;2022-09-21T12:27:32;22.80;46.50
50548;DHT22;38013;48.810;8.818;2022-09-21T12:30:27;22.80;46.40
50548;DHT22;38013;48.810;8.818;2022-09-21T12:33:05;22.80;46.60
50548;DHT22;38013;48.810;8.818;2022-09-21T12:35:50;22.70;44.80
50548;DHT22;38013;48.810;8.818;2022-09-21T12:38:38;22.60;45.50
50548;DHT22;38013;48.810;8.818;2022-09-21T12:41:11;22.40;44.70
50548;DHT22;38013;48.810;8.818;2022-09-21T12:47:07;22.00;45.00
50548;DHT22;38013;48.810;8.818;2022-09-21T12:49:40;21.80;46.00
50548;DHT22;38013;48.810;8.818;2022-09-21T12:52:09;21.70;46.20
50548;DHT22;38013;48.810;8.818;2022-09-21T12:54:50;21.70;46.20
50548;DHT22;38013;48.810;8.818;2022-09-21T13:00:20;21.60;46.10
50548;DHT22;38013;48.810;8.818;2022-09-21T13:02:53;21.70;46.70
50548;DHT22;38013;48.810;8.818;2022-09-21T13:08:42;21.90;46.40
50548;DHT22;38013;48.810;8.818;2022-09-21T13:11:09;22.10;46.60
50548;DHT22;38013;48.810;8.818;2022-09-21T13:13:47;22.30;46.00
50548;DHT22;38013;48.810;8.818;2022-09-21T13:16:36;22.50;44.80
50548;DHT22;38013;48.810;8.818;2022-09-21T13:19:15;22.70;45.00
50548;DHT22;38013;48.810;8.818;2022-09-21T13:21:43;23.00;45.80
50548;DHT22;38013;48.810;8.818;2022-09-21T13:24:26;23.30;47.10
50548;DHT22;38013;48.810;8.818;2022-09-21T13:26:56;23.50;44.90
50548;DHT22;38013;48.810;8.818;2022-09-21T13:29:32;23.60;44.60
50548;DHT22;38013;48.810;8.818;2022-09-21T13:34:42;23.60;41.60
50548;DHT22;38013;48.810;8.818;2022-09-21T13:39:47;23.40;42.10
50548;DHT22;38013;48.810;8.818;2022-09-21T13:45:00;23.20;42.50
50548;DHT22;38013;48.810;8.818;2022-09-21T13:47:34;23.20;43.70
50548;DHT22;38013;48.810;8.818;2022-09-21T13:52:51;23.70;44.00
50548;DHT22;38013;48.810;8.818;2022-09-21T13:55:32;24.00;43.30
50548;DHT22;38013;48.810;8.818;2022-09-21T13:58:02;24.40;43.40
50548;DHT22;38013;48.810;8.818;2022-09-21T14:00:41;24.90;44.50
50548;DHT22;38013;48.810;8.818;2022-09-21T14:03:25;25.40;41.90
50548;DHT22;38013;48.810;8.818;2022-09-21T14:06:46;25.80;42.00
50548;DHT22;38013;48.810;8.818;2022-09-21T14:09:06;26.30;40.10
50548;DHT22;38013;48.810;8.818;2022-09-21T14:11:42;26.80;39.30
50548;DHT22;38013;48.810;8.818;2022-09-21T14:16:55;27.30;37.20
50548;DHT22;38013;48.810;8.818;2022-09-21T14:24:43;27.70;37.00
50548;DHT22;38013;48.810;8.818;2022-09-21T14:30:03;27.80;35.40
50548;DHT22;38013;48.810;8.818;2022-09-21T14:35:25;27.50;34.60
50548;DHT22;38013;48.810;8.818;2022-09-21T14:38:00;27.00;34.50
50548;DHT22;38013;48.810;8.818;2022-09-21T14:40:33;26.60;34.70
50548;DHT22;38013;48.810;8.818;2022-09-21T14:43:07;26.20;34.80
50548;DHT22;38013;48.810;8.818;2022-09-21T14:54:26;26.20;35.40
50548;DHT22;38013;48.810;8.818;2022-09-21T14:57:08;26.60;36.10
50548;DHT22;38013;48.810;8.818;2022-09-21T15:02:52;26.90;35.40
50548;DHT22;38013;48.810;8.818;2022-09-21T15:05:41;26.80;34.50
50548;DHT22;38013;48.810;8.818;2022-09-21T15:12:19;26.50;35.30
50548;DHT22;38013;48.810;8.818;2022-09-21T15:14:57;26.60;35.50
50548;DHT22;38013;48.810;8.818;2022-09-21T15:17:57;26.80;34.90
50548;DHT22;38013;48.810;8.818;2022-09-21T15:20:26;27.00;35.20
50548;DHT22;38013;48.810;8.818;2022-09-21T15:22:55;27.30;35.50
50548;DHT22;38013;48.810;8.818;2022-09-21T15:25:23;27.50;35.20
50548;DHT22;38013;48.810;8.818;2022-09-21T15:27:51;27.70;34.80
50548;DHT22;38013;48.810;8.818;2022-09-21T15:30:23;27.90;34.40
50548;DHT22;38013;48.810;8.818;2022-09-21T15:32:59;28.00;33.80
50548;DHT22;38013;48.810;8.818;2022-09-21T15:35:28;28.20;33.60
50548;DHT22;38013;48.810;8.818;2022-09-21T15:37:57;28.40;33.70
50548;DHT22;38013;48.810;8.818;2022-09-21T15:43:15;28.70;33.10
50548;DHT22;38013;48.810;8.818;2022-09-21T15:45:49;28.80;32.30
50548;DHT22;38013;48.810;8.818;2022-09-21T15:48:31;28.80;32.80
50548;DHT22;38013;48.810;8.818;2022-09-21T15:51:07;28.90;33.00
50548;DHT22;38013;48.810;8.818;2022-09-21T15:53:45;29.00;32.70
50548;DHT22;38013;48.810;8.818;2022-09-21T15:56:21;28.90;31.90
50548;DHT22;38013;48.810;8.818;2022-09-21T15:58:51;28.90;31.60
50548;DHT22;38013;48.810;8.818;2022-09-21T16:01:23;28.70;31.90
50548;DHT22;38013;48.810;8.818;2022-09-21T16:04:05;28.60;32.00
50548;DHT22;38013;48.810;8.818;2022-09-21T16:06:37;28.50;31.80
50548;DHT22;38013;48.810;8.818;2022-09-21T16:11:48;28.40;32.00
50548;DHT22;38013;48.810;8.818;2022-09-21T16:14:16;28.40;31.90
50548;DHT22;38013;48.810;8.818;2022-09-21T16:22:42;28.30;31.20
50548;DHT22;38013;48.810;8.818;2022-09-21T16:27:59;28.10;31.80
50548;DHT22;38013;48.810;8.818;2022-09-21T16:30:52;28.00;31.20
50548;DHT22;38013;48.810;8.818;2022-09-21T16:33:54;28.00;31.20
50548;DHT22;38013;48.810;8.818;2022-09-21T16:36:33;27.90;30.70
50548;DHT22;38013;48.810;8.818;2022-09-21T16:39:03;27.70;30.80
50548;DHT22;38013;48.810;8.818;2022-09-21T16:41:36;27.60;31.20
50548;DHT22;38013;48.810;8.818;2022-09-21T16:44:15;27.50;30.60
50548;DHT22;38013;48.810;8.818;2022-09-21T16:49:21;27.20;30.60
50548;DHT22;38013;48.810;8.818;2022-09-21T16:51:48;27.10;30.90
50548;DHT22;38013;48.810;8.818;2022-09-21T16:54:16;26.90;30.90
50548;DHT22;38013;48.810;8.818;2022-09-21T16:56:43;26.80;30.90
50548;DHT22;38013;48.810;8.818;2022-09-21T16:59:18;26.60;30.80
50548;DHT22;38013;48.810;8.818;2022-09-21T17:01:48;26.40;30.60
50548;DHT22;38013;48.810;8.818;2022-09-21T17:04:22;26.20;31.30
50548;DHT22;38013;48.810;8.818;2022-09-21T17:06:52;25.90;31.20
50548;DHT22;38013;48.810;8.818;2022-09-21T17:09:32;25.60;31.50
50548;DHT22;38013;48.810;8.818;2022-09-21T17:12:01;25.40;31.20
50548;DHT22;38013;48.810;8.818;2022-09-21T17:14:29;25.00;31.60
50548;DHT22;38013;48.810;8.818;2022-09-21T17:16:59;24.70;31.80
50548;DHT22;38013;48.810;8.818;2022-09-21T17:19:29;24.30;32.00
50548;DHT22;38013;48.810;8.818;2022-09-21T17:21:55;23.80;32.30
50548;DHT22;38013;48.810;8.818;2022-09-21T17:24:22;23.30;32.50
50548;DHT22;38013;48.810;8.818;2022-09-21T17:26:47;22.90;33.10
50548;DHT22;38013;48.810;8.818;2022-09-21T17:29:19;22.40;33.60
50548;DHT22;38013;48.810;8.818;2022-09-21T17:31:48;22.00;34.30
50548;DHT22;38013;48.810;8.818;2022-09-21T17:34:17;21.50;34.80
50548;DHT22;38013;48.810;8.818;2022-09-21T17:36:45;21.10;35.40
50548;DHT22;38013;48.810;8.818;2022-09-21T17:39:11;20.70;36.00
50548;DHT22;38013;48.810;8.818;2022-09-21T17:47:25;19.40;38.20
50548;DHT22;38013;48.810;8.818;2022-09-21T17:50:22;19.10;38.40
50548;DHT22;38013;48.810;8.818;2022-09-21T17:52:50;18.80;39.40
50548;DHT22;38013;48.810;8.818;2022-09-21T17:55:35;18.60;39.40
50548;DHT22;38013;48.810;8.818;2022-09-21T17:58:32;18.30;40.00
50548;DHT22;38013;48.810;8.818;2022-09-21T18:01:21;18.00;41.20
50548;DHT22;38013;48.810;8.818;2022-09-21T18:03:51;17.80;41.40
50548;DHT22;38013;48.810;8.818;2022-09-21T18:06:17;17.50;41.30
50548;DHT22;38013;48.810;8.818;2022-09-21T18:08:43;17.40;41.80
50548;DHT22;38013;48.810;8.818;2022-09-21T18:17:41;16.80;45.20
50548;DHT22;38013;48.810;8.818;2022-09-21T18:20:40;16.60;44.40
50548;DHT22;38013;48.810;8.818;2022-09-21T18:26:09;16.20;46.50
50548;DHT22;38013;48.810;8.818;2022-09-21T18:28:43;16.00;45.50
50548;DHT22;38013;48.810;8.818;2022-09-21T18:34:24;15.60;47.30
50548;DHT22;38013;48.810;8.818;2022-09-21T18:37:31;15.40;47.80
50548;DHT22;38013;48.810;8.818;2022-09-21T18:40:17;15.30;48.20
50548;DHT22;38013;48.810;8.818;2022-09-21T18:43:17;15.10;48.50
50548;DHT22;38013;48.810;8.818;2022-09-21T18:46:18;14.90;48.50
50548;DHT22;38013;48.810;8.818;2022-09-21T18:54:33;14.50;50.00
50548;DHT22;38013;48.810;8.818;2022-09-21T18:56:59;14.40;49.10
50548;DHT22;38013;48.810;8.818;2022-09-21T18:59:25;14.20;49.70
50548;DHT22;38013;48.810;8.818;2022-09-21T19:01:51;14.10;49.90
50548;DHT22;38013;48.810;8.818;2022-09-21T19:04:17;14.00;50.10
50548;DHT22;38013;48.810;8.818;2022-09-21T19:10:05;13.80;52.20
50548;DHT22;38013;48.810;8.818;2022-09-21T19:13:08;13.70;52.60
50548;DHT22;38013;48.810;8.818;2022-09-21T19:15:42;13.60;52.60
50548;DHT22;38013;48.810;8.818;2022-09-21T19:24:18;13.20;53.80
50548;DHT22;38013;48.810;8.818;2022-09-21T19:27:25;13.10;53.80
50548;DHT22;38013;48.810;8.818;2022-09-21T19:32:53;12.90;52.80
50548;DHT22;38013;48.810;8.818;2022-09-21T19:35:30;12.80;55.10
50548;DHT22;38013;48.810;8.818;2022-09-21T19:38:02;12.70;54.80
50548;DHT22;38013;48.810;8.818;2022-09-21T19:40:33;12.60;54.60
50548;DHT22;38013;48.810;8.818;2022-09-21T19:49:13;12.40;56.40